SCAR METAR and TAF weather

Enter ICAO airport designator
Station Type Date Time Source
SCAR METAR 2021/09/24 01:00 UTC NOAA

SCAR 240100Z 16006KT 9999 OVC022 15/10 Q1015


Station Type Date Time Source
SCAR Decoded METAR 2021/09/24 01:00 UTC NOAA

Arica, Chile (SCAR) 18-20S 070-20W 58M
Sep 23, 2021 - 09:00 PM EDT / 2021.09.24 0100 UTC
Wind: from the SSE (160 degrees) at 7 MPH (6 KT):0
Visibility: greater than 7 mile(s):0
Sky conditions: overcast
Temperature: 59 F (15 C)
Dew Point: 50 F (10 C)
Relative Humidity: 72%
Pressure (altimeter): 29.97 in. Hg (1015 hPa)
ob: SCAR 240100Z 16006KT 9999 OVC022 15/10 Q1015
cycle: 1

Station Type Date Time Source
SCAR TAF 2021/09/24 00:00 UTC NOAA

TAF SCAR 232230Z 2400/2424 20004KT 9999 OVC025 TN15/2410Z TX17/2418Z
BECMG 2416/2418 23010KT FEW025
BECMG 2422/2424 21004KT BKN023

Example: see airport list